createdAt,value
2023-06-05T00:00:02.330Z,2.10
2023-06-05T00:02:30.811Z,2.25
2023-06-05T00:04:59.264Z,2.00
2023-06-05T00:07:30.562Z,2.10
2023-06-05T00:09:58.998Z,2.20
2023-06-05T00:12:27.482Z,2.05
2023-06-05T00:14:55.904Z,1.80
2023-06-05T00:17:25.814Z,1.52
2023-06-05T00:19:54.115Z,2.28
2023-06-05T00:22:22.774Z,2.10
2023-06-05T00:24:51.378Z,1.80
2023-06-05T00:27:20.489Z,1.92
2023-06-05T00:29:48.870Z,2.92
2023-06-05T00:32:17.244Z,2.03
2023-06-05T00:34:47.620Z,2.10
2023-06-05T00:37:16.649Z,2.10
2023-06-05T00:39:44.943Z,2.08
2023-06-05T00:42:13.261Z,2.00
2023-06-05T00:44:41.687Z,2.05
2023-06-05T00:47:10.264Z,2.20
2023-06-05T00:49:39.097Z,2.55
2023-06-05T00:52:09.268Z,2.10
2023-06-05T00:54:41.146Z,2.10
2023-06-05T00:57:10.167Z,2.28
2023-06-05T00:59:39.131Z,2.58
2023-06-05T01:02:07.616Z,1.75
2023-06-05T01:04:37.858Z,2.05
2023-06-05T01:07:06.586Z,2.50
2023-06-05T01:09:36.244Z,2.67
2023-06-05T01:12:10.088Z,2.20
2023-06-05T01:14:41.413Z,2.17
2023-06-05T01:17:11.892Z,2.63
2023-06-05T01:19:40.651Z,2.40
2023-06-05T01:22:09.326Z,2.55
2023-06-05T01:24:41.711Z,2.20
2023-06-05T01:27:17.304Z,2.67
2023-06-05T01:29:55.136Z,2.17
2023-06-05T01:32:27.759Z,2.47
2023-06-05T01:34:59.601Z,2.05
2023-06-05T01:37:28.628Z,2.10
2023-06-05T01:39:59.986Z,2.35
2023-06-05T01:42:29.304Z,2.13
2023-06-05T01:44:58.034Z,2.40
2023-06-05T01:47:27.168Z,2.30
2023-06-05T01:49:55.445Z,2.53
2023-06-05T01:52:23.735Z,2.60
2023-06-05T01:54:53.790Z,2.15
2023-06-05T01:57:23.442Z,2.85
2023-06-05T01:59:51.726Z,2.10
2023-06-05T02:02:20.397Z,2.38
2023-06-05T02:04:48.964Z,2.30
2023-06-05T02:07:17.449Z,2.72
2023-06-05T02:09:45.869Z,2.00
2023-06-05T02:12:15.344Z,2.28
2023-06-05T02:14:45.865Z,2.20
2023-06-05T02:17:14.530Z,2.38
2023-06-05T02:19:43.197Z,1.90
2023-06-05T02:22:11.768Z,2.25
2023-06-05T02:24:40.024Z,2.47
2023-06-05T02:27:09.295Z,2.10
2023-06-05T02:29:37.943Z,2.40
2023-06-05T02:32:08.470Z,2.20
2023-06-05T02:34:36.747Z,2.42
2023-06-05T02:37:04.975Z,2.10
2023-06-05T02:39:34.517Z,2.78
2023-06-05T02:42:02.754Z,2.70
2023-06-05T02:44:31.583Z,2.60
2023-06-05T02:46:59.837Z,2.40
2023-06-05T02:49:29.463Z,2.00
2023-06-05T02:51:57.727Z,3.08
2023-06-05T02:54:29.530Z,2.33
2023-06-05T02:57:02.277Z,2.85
2023-06-05T02:59:33.040Z,2.08
2023-06-05T03:02:01.331Z,2.65
2023-06-05T03:04:31.033Z,2.45
2023-06-05T03:07:04.036Z,2.70
2023-06-05T03:09:32.386Z,2.30
2023-06-05T03:12:00.894Z,2.40
2023-06-05T03:14:29.190Z,2.35
2023-06-05T03:16:59.553Z,2.35
2023-06-05T03:19:28.197Z,2.40
2023-06-05T03:21:57.866Z,2.45
2023-06-05T03:24:28.084Z,2.33
2023-06-05T03:26:56.345Z,2.40
2023-06-05T03:29:24.592Z,2.60
2023-06-05T03:31:52.887Z,2.50
2023-06-05T03:34:21.166Z,2.40
2023-06-05T03:36:49.634Z,2.10
2023-06-05T03:39:19.386Z,2.40
2023-06-05T03:41:47.661Z,2.53
2023-06-05T03:44:15.888Z,2.30
2023-06-05T03:46:44.183Z,2.60
2023-06-05T03:49:13.322Z,2.30
2023-06-05T03:51:45.821Z,2.47
2023-06-05T03:54:14.327Z,2.20
2023-06-05T03:56:50.467Z,2.50
2023-06-05T03:59:22.603Z,2.42
2023-06-05T04:01:51.445Z,2.70
2023-06-05T04:04:19.796Z,2.58
2023-06-05T04:06:48.147Z,2.13
2023-06-05T04:09:16.814Z,2.28
2023-06-05T04:11:48.615Z,2.28
2023-06-05T04:14:16.910Z,2.25
2023-06-05T04:16:45.319Z,2.42
2023-06-05T04:19:14.624Z,2.25
2023-06-05T04:21:43.670Z,2.38
2023-06-05T04:24:12.289Z,2.10
2023-06-05T04:26:42.456Z,3.13
2023-06-05T04:29:15.059Z,2.53
2023-06-05T04:31:44.212Z,2.10
2023-06-05T04:34:12.905Z,2.60
2023-06-05T04:36:41.942Z,2.33
2023-06-05T04:39:15.599Z,2.60
2023-06-05T04:41:46.323Z,2.00
2023-06-05T04:44:18.098Z,3.25
2023-06-05T04:46:47.043Z,3.10
2023-06-05T04:49:16.572Z,4.90
2023-06-05T04:51:45.351Z,8.00
2023-06-05T04:54:13.675Z,6.15
2023-06-05T04:56:42.020Z,7.20
2023-06-05T04:59:10.290Z,8.38
2023-06-05T05:01:41.717Z,9.98
2023-06-05T05:04:13.113Z,11.27
2023-06-05T05:06:42.390Z,10.98
2023-06-05T05:09:10.831Z,9.60
2023-06-05T05:11:39.109Z,11.60
2023-06-05T05:14:07.467Z,11.27
2023-06-05T05:16:36.485Z,12.90
2023-06-05T05:19:07.267Z,10.10
2023-06-05T05:21:36.452Z,9.53
2023-06-05T05:24:05.677Z,10.30
2023-06-05T05:26:33.971Z,8.07
2023-06-05T05:29:02.345Z,7.80
2023-06-05T05:31:30.705Z,6.00
2023-06-05T05:33:59.300Z,4.37
2023-06-05T05:36:29.561Z,2.80
2023-06-05T05:38:57.960Z,2.30
2023-06-05T05:41:26.672Z,2.07
2023-06-05T05:43:54.996Z,2.40
2023-06-05T05:46:24.332Z,1.90
2023-06-05T05:48:53.777Z,2.17
2023-06-05T05:51:22.269Z,1.90
2023-06-05T05:53:52.093Z,2.00
2023-06-05T05:56:20.523Z,2.20
2023-06-05T05:58:49.437Z,1.90
2023-06-05T06:01:17.676Z,2.10
2023-06-05T06:03:46.449Z,2.10
2023-06-05T06:06:14.883Z,2.50
2023-06-05T06:08:46.233Z,1.90
2023-06-05T06:11:16.709Z,1.90
2023-06-05T06:13:46.218Z,1.63
2023-06-05T06:16:14.503Z,1.50
2023-06-05T06:18:42.809Z,1.60
2023-06-05T06:21:11.274Z,1.60
2023-06-05T06:23:39.902Z,1.40
2023-06-05T06:26:08.221Z,1.20
2023-06-05T06:28:37.859Z,1.87
2023-06-05T06:31:06.132Z,1.60
2023-06-05T06:33:34.506Z,1.70
2023-06-05T06:36:05.978Z,1.40
2023-06-05T06:38:34.248Z,1.40
2023-06-05T06:41:02.475Z,1.50
2023-06-05T06:43:30.753Z,1.53
2023-06-05T06:46:01.460Z,2.00
2023-06-05T06:48:29.792Z,1.60
2023-06-05T06:50:58.101Z,1.77
2023-06-05T06:53:26.337Z,1.40
2023-06-05T06:55:54.540Z,1.67
2023-06-05T06:58:22.908Z,1.40
2023-06-05T07:00:51.264Z,1.50
2023-06-05T07:03:21.186Z,1.57
2023-06-05T07:05:49.490Z,1.80
2023-06-05T07:08:17.702Z,1.77
2023-06-05T07:10:46.042Z,1.60
2023-06-05T07:13:14.528Z,1.63
2023-06-05T07:15:42.836Z,1.40
2023-06-05T07:18:11.948Z,1.80
2023-06-05T07:20:41.812Z,1.50
2023-06-05T07:23:10.048Z,1.80
2023-06-05T07:25:39.338Z,1.63
2023-06-05T07:28:12.659Z,1.43
2023-06-05T07:30:47.796Z,1.67
2023-06-05T07:33:29.112Z,1.57
2023-06-05T07:36:02.194Z,1.40
2023-06-05T07:38:31.388Z,1.43
2023-06-05T07:41:02.740Z,1.83
2023-06-05T07:43:31.175Z,1.50
2023-06-05T07:45:59.508Z,1.73
2023-06-05T07:48:27.753Z,1.60
2023-06-05T07:50:56.045Z,1.67
2023-06-05T07:53:25.739Z,1.30
2023-06-05T07:55:54.225Z,1.97
2023-06-05T07:58:23.810Z,1.80
2023-06-05T08:00:53.082Z,1.80
2023-06-05T08:03:22.593Z,1.70
2023-06-05T08:05:52.045Z,1.40
2023-06-05T08:08:20.729Z,1.67
2023-06-05T08:10:50.381Z,1.60
2023-06-05T08:13:19.607Z,1.60
2023-06-05T08:15:47.931Z,1.40
2023-06-05T08:18:17.367Z,1.73
2023-06-05T08:20:45.713Z,1.47
2023-06-05T08:23:14.596Z,1.80
2023-06-05T08:25:44.013Z,2.00
2023-06-05T08:28:13.756Z,1.57
2023-06-05T08:30:42.162Z,2.10
2023-06-05T08:33:10.471Z,1.70
2023-06-05T08:35:39.960Z,1.70
2023-06-05T08:38:08.164Z,1.80
2023-06-05T08:40:37.632Z,1.80
2023-06-05T08:43:06.219Z,1.83
2023-06-05T08:45:36.087Z,1.80
2023-06-05T08:48:05.112Z,1.80
2023-06-05T08:50:33.532Z,1.87
2023-06-05T08:53:05.017Z,1.83
2023-06-05T08:55:33.704Z,2.20
2023-06-05T08:58:05.339Z,1.60
2023-06-05T09:00:35.144Z,1.83
2023-06-05T09:03:04.267Z,2.00
2023-06-05T09:05:32.982Z,2.00
2023-06-05T09:08:02.217Z,2.10
2023-06-05T09:10:31.336Z,1.83
2023-06-05T09:13:04.597Z,2.00
2023-06-05T09:15:34.622Z,1.87
2023-06-05T09:18:10.345Z,2.00
2023-06-05T09:20:40.660Z,2.23
2023-06-05T09:23:28.345Z,1.97
2023-06-05T09:26:05.942Z,2.30
2023-06-05T09:28:34.232Z,1.83
2023-06-05T09:31:03.615Z,2.17
2023-06-05T09:33:35.591Z,2.43
2023-06-05T09:36:08.583Z,2.27
2023-06-05T09:38:38.991Z,1.80
2023-06-05T09:41:08.895Z,1.80
2023-06-05T09:43:38.746Z,2.23
2023-06-05T09:46:11.962Z,2.23
2023-06-05T09:48:42.566Z,1.90
2023-06-05T09:51:13.821Z,1.70
2023-06-05T09:53:45.826Z,1.80
2023-06-05T09:56:16.485Z,1.57
2023-06-05T09:58:48.965Z,1.73
2023-06-05T10:01:19.621Z,1.50
2023-06-05T10:03:56.817Z,1.83
2023-06-05T10:06:26.229Z,2.00
2023-06-05T10:08:56.915Z,2.00
2023-06-05T10:11:26.020Z,1.87
2023-06-05T10:13:54.618Z,1.90
2023-06-05T10:16:27.113Z,2.10
2023-06-05T10:18:58.121Z,2.00
2023-06-05T10:21:27.053Z,2.27
2023-06-05T10:24:03.257Z,1.93
2023-06-05T10:27:18.954Z,1.97
2023-06-05T10:30:15.579Z,1.90
2023-06-05T10:32:58.377Z,2.20
2023-06-05T10:35:42.569Z,1.90
2023-06-05T10:38:19.714Z,2.20
2023-06-05T10:40:49.089Z,2.60
2023-06-05T10:43:31.041Z,2.10
2023-06-05T10:49:08.626Z,1.67
2023-06-05T10:51:43.574Z,1.90
2023-06-05T10:54:16.725Z,1.90
2023-06-05T10:57:01.035Z,1.80
2023-06-05T10:59:31.407Z,2.20
2023-06-05T11:02:27.304Z,2.50
2023-06-05T11:05:12.601Z,1.80
2023-06-05T11:07:46.446Z,2.23
2023-06-05T11:10:19.467Z,2.07
2023-06-05T11:13:03.706Z,1.90
2023-06-05T11:15:42.619Z,2.20
2023-06-05T11:18:40.512Z,2.00
2023-06-05T11:21:08.805Z,1.90
2023-06-05T11:23:38.482Z,1.80
2023-06-05T11:26:40.459Z,2.00
2023-06-05T11:29:18.441Z,1.90
2023-06-05T11:31:48.124Z,2.03
2023-06-05T11:34:16.988Z,2.30
2023-06-05T11:36:45.917Z,2.20
2023-06-05T11:39:15.836Z,2.50
2023-06-05T11:41:48.801Z,2.40
2023-06-05T11:44:32.667Z,2.47
2023-06-05T11:47:01.126Z,2.00
2023-06-05T11:49:31.085Z,2.10
2023-06-05T11:52:00.027Z,2.10
2023-06-05T11:54:32.015Z,2.40
2023-06-05T11:57:03.019Z,2.67
2023-06-05T11:59:32.222Z,2.33
2023-06-05T12:02:00.787Z,2.47
2023-06-05T12:04:29.356Z,2.10
2023-06-05T12:06:58.509Z,2.63
2023-06-05T12:09:26.811Z,2.33
2023-06-05T12:12:07.792Z,2.13
2023-06-05T12:14:36.561Z,1.97
2023-06-05T12:17:11.971Z,2.20
2023-06-05T12:19:41.448Z,2.50
2023-06-05T12:22:11.387Z,2.40
2023-06-05T12:24:39.954Z,2.30
2023-06-05T12:27:10.843Z,2.40
2023-06-05T12:29:41.749Z,2.07
2023-06-05T12:32:24.079Z,2.53
2023-06-05T12:37:26.754Z,3.00
2023-06-05T12:39:55.194Z,2.47
2023-06-05T12:42:24.940Z,2.37
2023-06-05T12:44:53.478Z,2.00
2023-06-05T12:47:21.887Z,2.97
2023-06-05T12:49:50.245Z,2.47
2023-06-05T12:52:27.048Z,2.43
2023-06-05T12:54:55.908Z,2.50
2023-06-05T12:57:26.838Z,3.03
2023-06-05T12:59:57.055Z,2.97
2023-06-05T13:02:26.206Z,3.30
2023-06-05T13:04:57.549Z,2.40
2023-06-05T13:07:25.801Z,2.87
2023-06-05T13:09:56.402Z,2.70
2023-06-05T13:12:26.078Z,2.67
2023-06-05T13:14:54.366Z,2.80
2023-06-05T13:17:24.261Z,2.90
2023-06-05T13:19:52.536Z,2.57
2023-06-05T13:22:22.562Z,2.37
2023-06-05T13:24:51.872Z,2.40
2023-06-05T13:27:20.832Z,2.40
2023-06-05T13:29:50.511Z,2.23
2023-06-05T13:32:18.924Z,2.50
2023-06-05T13:34:47.886Z,2.97
2023-06-05T13:37:16.201Z,2.53
2023-06-05T13:39:44.465Z,2.80
2023-06-05T13:42:12.900Z,2.53
2023-06-05T13:44:41.317Z,2.80
2023-06-05T13:47:11.401Z,2.60
2023-06-05T13:49:39.591Z,2.97
2023-06-05T13:52:08.546Z,3.40
2023-06-05T13:54:37.133Z,2.40
2023-06-05T13:57:06.275Z,3.83
2023-06-05T13:59:37.425Z,2.43
2023-06-05T14:02:06.006Z,3.20
2023-06-05T14:04:35.725Z,2.60
2023-06-05T14:07:04.303Z,2.17
2023-06-05T14:09:32.842Z,3.13
2023-06-05T14:12:02.254Z,2.37
2023-06-05T14:14:31.176Z,2.63
2023-06-05T14:16:59.425Z,3.23
2023-06-05T14:19:27.648Z,2.73
2023-06-05T14:21:57.696Z,2.53
2023-06-05T14:24:26.264Z,2.63
2023-06-05T14:26:55.397Z,2.60
2023-06-05T14:29:23.692Z,2.87
2023-06-05T14:31:52.043Z,2.80
2023-06-05T14:34:21.275Z,2.70
2023-06-05T14:36:52.537Z,2.57
2023-06-05T14:39:22.469Z,3.10
2023-06-05T14:41:50.865Z,2.60
2023-06-05T14:44:23.561Z,3.07
2023-06-05T14:46:55.532Z,2.80
2023-06-05T14:49:23.900Z,2.80
2023-06-05T14:51:55.087Z,2.50
2023-06-05T14:54:24.774Z,3.23
2023-06-05T14:56:53.040Z,2.50
2023-06-05T15:01:52.780Z,2.90
2023-06-05T15:04:21.177Z,3.00
2023-06-05T15:06:52.617Z,2.93
2023-06-05T15:09:21.286Z,3.00
2023-06-05T15:11:51.101Z,3.13
2023-06-05T15:14:19.918Z,3.30
2023-06-05T15:16:48.270Z,2.60
2023-06-05T15:19:17.071Z,2.60
2023-06-05T15:21:45.368Z,2.67
2023-06-05T15:24:16.500Z,2.60
2023-06-05T15:26:47.806Z,2.23
2023-06-05T15:29:17.492Z,2.60
2023-06-05T15:32:04.936Z,2.53
2023-06-05T15:34:40.823Z,2.50
2023-06-05T15:37:09.261Z,2.90
2023-06-05T15:39:37.912Z,2.73
2023-06-05T15:42:07.407Z,2.47
2023-06-05T15:44:41.161Z,2.53
2023-06-05T15:47:09.622Z,2.33
2023-06-05T15:49:38.032Z,2.87
2023-06-05T15:52:06.675Z,3.00
2023-06-05T15:54:53.500Z,2.30
2023-06-05T15:57:23.031Z,2.87
2023-06-05T15:59:52.634Z,2.70
2023-06-05T16:02:23.976Z,2.60
2023-06-05T16:04:52.276Z,2.90
2023-06-05T16:07:20.570Z,2.13
2023-06-05T16:09:49.175Z,3.30
2023-06-05T16:12:17.569Z,2.80
2023-06-05T16:14:45.929Z,3.10
2023-06-05T16:17:15.951Z,3.40
2023-06-05T16:19:44.239Z,3.73
2023-06-05T16:22:18.495Z,3.73
2023-06-05T16:24:46.970Z,3.10
2023-06-05T16:27:16.577Z,2.47
2023-06-05T16:29:46.387Z,3.00
2023-06-05T16:32:16.261Z,2.90
2023-06-05T16:34:44.545Z,2.63
2023-06-05T16:37:14.436Z,3.30
2023-06-05T16:39:42.677Z,2.93
2023-06-05T16:42:13.666Z,2.90
2023-06-05T16:44:41.933Z,3.13
2023-06-05T16:47:10.188Z,2.93
2023-06-05T16:49:40.700Z,2.37
2023-06-05T16:52:09.114Z,2.73
2023-06-05T16:54:37.381Z,2.77
2023-06-05T16:57:06.971Z,2.87
2023-06-05T16:59:35.245Z,3.23
2023-06-05T17:02:03.706Z,3.60
2023-06-05T17:04:32.436Z,3.20
2023-06-05T17:07:04.213Z,3.83
2023-06-05T17:09:33.045Z,3.60
2023-06-05T17:12:01.521Z,4.40
2023-06-05T17:14:29.747Z,5.33
2023-06-05T17:16:57.954Z,4.43
2023-06-05T17:19:26.283Z,4.40
2023-06-05T17:21:54.642Z,4.60
2023-06-05T17:24:29.985Z,4.83
2023-06-05T17:27:02.370Z,4.70
2023-06-05T17:29:37.423Z,5.30
2023-06-05T17:32:08.887Z,4.97
2023-06-05T17:34:38.089Z,5.23
2023-06-05T17:37:07.155Z,5.93
2023-06-05T17:39:48.458Z,4.33
2023-06-05T17:42:16.721Z,5.00
2023-06-05T17:44:47.772Z,4.37
2023-06-05T17:47:19.043Z,5.17
2023-06-05T17:49:47.659Z,4.40
2023-06-05T17:52:19.011Z,4.70
2023-06-05T17:54:49.076Z,4.53
2023-06-05T17:57:17.547Z,4.50
2023-06-05T17:59:46.072Z,4.80
2023-06-05T18:02:14.541Z,4.87
2023-06-05T18:04:45.965Z,5.00
2023-06-05T18:07:14.205Z,4.93
2023-06-05T18:09:42.447Z,5.10
2023-06-05T18:12:13.032Z,5.00
2023-06-05T18:14:41.765Z,5.00
2023-06-05T18:17:10.121Z,4.53
2023-06-05T18:19:39.156Z,4.53
2023-06-05T18:22:07.526Z,4.50
2023-06-05T18:24:35.782Z,4.27
2023-06-05T18:27:04.058Z,4.20
2023-06-05T18:29:33.652Z,4.57
2023-06-05T18:32:02.033Z,4.40
2023-06-05T18:34:32.185Z,4.33
2023-06-05T18:37:06.010Z,4.30
2023-06-05T18:39:34.607Z,4.07
2023-06-05T18:42:05.733Z,4.40
2023-06-05T18:44:44.640Z,4.60
2023-06-05T18:47:12.956Z,4.57
2023-06-05T18:49:41.547Z,5.00
2023-06-05T18:52:09.885Z,4.53
2023-06-05T18:54:42.753Z,4.53
2023-06-05T18:57:17.451Z,4.43
2023-06-05T18:59:51.671Z,4.60
2023-06-05T19:02:22.311Z,5.23
2023-06-05T19:04:50.856Z,4.23
2023-06-05T19:07:19.102Z,4.60
2023-06-05T19:09:47.368Z,4.50
2023-06-05T19:12:18.599Z,5.30
2023-06-05T19:14:48.208Z,4.43
2023-06-05T19:17:16.444Z,5.47
2023-06-05T19:19:44.830Z,4.60
2023-06-05T19:22:13.104Z,5.13
2023-06-05T19:24:41.391Z,4.17
2023-06-05T19:27:09.903Z,4.73
2023-06-05T19:29:38.169Z,5.40
2023-06-05T19:32:11.039Z,4.43
2023-06-05T19:34:45.908Z,4.70
2023-06-05T19:37:25.734Z,4.60
2023-06-05T19:39:56.630Z,5.03
2023-06-05T19:42:31.203Z,4.53
2023-06-05T19:44:59.583Z,5.40
2023-06-05T19:47:31.867Z,4.93
2023-06-05T19:50:02.675Z,5.00
2023-06-05T19:52:31.881Z,4.87
2023-06-05T19:55:01.075Z,4.40
2023-06-05T19:57:29.345Z,5.30
2023-06-05T20:00:01.008Z,4.33
2023-06-05T20:02:30.730Z,5.47
2023-06-05T20:04:59.031Z,4.57
2023-06-05T20:07:27.291Z,4.90
2023-06-05T20:09:55.500Z,6.17
2023-06-05T20:12:26.803Z,5.30
2023-06-05T20:14:55.099Z,5.47
2023-06-05T20:17:23.384Z,5.40
2023-06-05T20:19:53.114Z,5.10
2023-06-05T20:22:21.626Z,5.30
2023-06-05T20:24:50.839Z,5.30
2023-06-05T20:27:19.092Z,4.80
2023-06-05T20:29:47.617Z,5.00
2023-06-05T20:32:15.871Z,4.90
2023-06-05T20:34:44.776Z,5.33
2023-06-05T20:37:16.309Z,5.00
2023-06-05T20:39:47.342Z,4.70
2023-06-05T20:42:16.998Z,4.87
2023-06-05T20:44:48.259Z,5.90
2023-06-05T20:47:17.901Z,5.03
2023-06-05T20:49:46.293Z,4.47
2023-06-05T20:52:16.470Z,4.70
2023-06-05T20:54:44.740Z,4.93
2023-06-05T20:57:13.613Z,5.17
2023-06-05T20:59:43.931Z,4.60
2023-06-05T21:02:12.568Z,4.93
2023-06-05T21:04:42.916Z,4.47
2023-06-05T21:07:11.177Z,4.87
2023-06-05T21:09:41.006Z,4.47
2023-06-05T21:12:12.849Z,5.03
2023-06-05T21:14:41.124Z,4.47
2023-06-05T21:17:09.605Z,4.73
2023-06-05T21:19:37.916Z,5.00
2023-06-05T21:22:07.081Z,4.97
2023-06-05T21:24:35.403Z,5.27
2023-06-05T21:27:05.419Z,5.23
2023-06-05T21:29:35.329Z,5.40
2023-06-05T21:32:03.655Z,5.10
2023-06-05T21:34:31.979Z,4.43
2023-06-05T21:37:00.831Z,4.50
2023-06-05T21:39:29.093Z,4.47
2023-06-05T21:41:57.314Z,5.17
2023-06-05T21:44:26.970Z,4.43
2023-06-05T21:46:55.195Z,5.00
2023-06-05T21:49:23.446Z,5.03
2023-06-05T21:51:51.651Z,5.10
2023-06-05T21:54:19.859Z,5.83
2023-06-05T21:56:48.090Z,6.60
2023-06-05T21:59:19.128Z,7.30
2023-06-05T22:01:48.773Z,7.90
2023-06-05T22:04:17.024Z,7.40
2023-06-05T22:06:45.249Z,8.15
2023-06-05T22:09:13.859Z,9.02
2023-06-05T22:11:42.317Z,8.45
2023-06-05T22:14:10.534Z,7.93
2023-06-05T22:16:43.105Z,7.50
2023-06-05T22:19:13.941Z,9.50
2023-06-05T22:21:45.290Z,8.63
2023-06-05T22:24:13.531Z,9.37
2023-06-05T22:26:42.791Z,9.57
2023-06-05T22:29:11.063Z,8.57
2023-06-05T22:31:39.900Z,7.63
2023-06-05T22:34:08.195Z,8.73
2023-06-05T22:36:37.942Z,8.35
2023-06-05T22:39:06.189Z,8.13
2023-06-05T22:41:34.497Z,7.10
2023-06-05T22:44:02.758Z,7.72
2023-06-05T22:46:30.969Z,7.00
2023-06-05T22:48:59.185Z,6.88
2023-06-05T22:51:30.541Z,8.10
2023-06-05T22:54:00.286Z,7.82
2023-06-05T22:56:28.580Z,6.57
2023-06-05T22:58:56.842Z,6.05
2023-06-05T23:01:25.606Z,6.80
2023-06-05T23:03:54.071Z,7.05
2023-06-05T23:06:22.639Z,7.85
2023-06-05T23:08:51.737Z,8.00
2023-06-05T23:11:21.372Z,7.43
2023-06-05T23:13:49.578Z,7.22
2023-06-05T23:16:17.880Z,7.10
2023-06-05T23:18:46.249Z,7.25
2023-06-05T23:21:14.512Z,7.28
2023-06-05T23:23:43.282Z,7.00
2023-06-05T23:26:11.584Z,7.40
2023-06-05T23:28:41.310Z,7.47
2023-06-05T23:31:09.744Z,8.30
2023-06-05T23:33:38.295Z,7.75
2023-06-05T23:36:07.108Z,7.85
2023-06-05T23:38:35.349Z,8.05
2023-06-05T23:41:03.593Z,7.28
2023-06-05T23:43:31.894Z,7.55
2023-06-05T23:46:02.286Z,8.23
2023-06-05T23:48:30.581Z,7.60
2023-06-05T23:50:58.847Z,8.60
2023-06-05T23:53:27.073Z,8.13
2023-06-05T23:55:55.341Z,7.60
2023-06-05T23:58:23.560Z,8.57
